sensor_id;sensor_type;location;lat;lon;timestamp;P1;durP1;ratioP1;P2;durP2;ratioP2
4696;SDS011;2362;50.780;0.292;2023-03-29T00:01:16;33.15;;;8.88;;
4696;SDS011;2362;50.780;0.292;2023-03-29T00:03:42;46.00;;;8.90;;
4696;SDS011;2362;50.780;0.292;2023-03-29T00:06:10;36.38;;;8.93;;
4696;SDS011;2362;50.780;0.292;2023-03-29T00:08:39;28.55;;;9.15;;
4696;SDS011;2362;50.780;0.292;2023-03-29T00:11:05;33.17;;;9.23;;
4696;SDS011;2362;50.780;0.292;2023-03-29T00:13:31;28.10;;;8.52;;
4696;SDS011;2362;50.780;0.292;2023-03-29T00:15:57;29.63;;;8.73;;
4696;SDS011;2362;50.780;0.292;2023-03-29T00:18:23;26.48;;;8.75;;
4696;SDS011;2362;50.780;0.292;2023-03-29T00:20:53;28.45;;;10.02;;
4696;SDS011;2362;50.780;0.292;2023-03-29T00:23:22;28.92;;;9.20;;
4696;SDS011;2362;50.780;0.292;2023-03-29T00:25:52;43.30;;;11.10;;
4696;SDS011;2362;50.780;0.292;2023-03-29T00:28:18;39.85;;;11.57;;
4696;SDS011;2362;50.780;0.292;2023-03-29T00:30:44;36.80;;;10.68;;
4696;SDS011;2362;50.780;0.292;2023-03-29T00:33:10;32.65;;;10.93;;
4696;SDS011;2362;50.780;0.292;2023-03-29T00:35:40;43.45;;;11.05;;
4696;SDS011;2362;50.780;0.292;2023-03-29T00:38:06;33.90;;;10.82;;
4696;SDS011;2362;50.780;0.292;2023-03-29T00:40:32;35.30;;;11.23;;
4696;SDS011;2362;50.780;0.292;2023-03-29T00:42:58;38.28;;;10.52;;
4696;SDS011;2362;50.780;0.292;2023-03-29T00:45:25;33.10;;;9.48;;
4696;SDS011;2362;50.780;0.292;2023-03-29T00:48:01;42.35;;;10.65;;
4696;SDS011;2362;50.780;0.292;2023-03-29T00:53:18;31.92;;;10.50;;
4696;SDS011;2362;50.780;0.292;2023-03-29T00:56:09;26.55;;;10.43;;
4696;SDS011;2362;50.780;0.292;2023-03-29T00:58:46;24.87;;;9.57;;
4696;SDS011;2362;50.780;0.292;2023-03-29T01:01:45;32.25;;;9.43;;
4696;SDS011;2362;50.780;0.292;2023-03-29T01:06:50;30.70;;;11.57;;
4696;SDS011;2362;50.780;0.292;2023-03-29T01:09:23;32.72;;;10.30;;
4696;SDS011;2362;50.780;0.292;2023-03-29T01:11:52;34.20;;;10.48;;
4696;SDS011;2362;50.780;0.292;2023-03-29T01:14:28;34.38;;;9.75;;
4696;SDS011;2362;50.780;0.292;2023-03-29T01:16:59;37.03;;;9.75;;
4696;SDS011;2362;50.780;0.292;2023-03-29T01:19:26;31.95;;;10.60;;
4696;SDS011;2362;50.780;0.292;2023-03-29T01:24:51;32.72;;;10.55;;
4696;SDS011;2362;50.780;0.292;2023-03-29T01:27:53;39.10;;;12.00;;
4696;SDS011;2362;50.780;0.292;2023-03-29T01:30:29;44.25;;;13.45;;
4696;SDS011;2362;50.780;0.292;2023-03-29T01:33:15;54.08;;;16.02;;
4696;SDS011;2362;50.780;0.292;2023-03-29T01:35:55;59.88;;;16.27;;
4696;SDS011;2362;50.780;0.292;2023-03-29T01:38:30;63.20;;;16.75;;
4696;SDS011;2362;50.780;0.292;2023-03-29T01:41:02;63.45;;;16.10;;
4696;SDS011;2362;50.780;0.292;2023-03-29T01:43:43;73.47;;;17.52;;
4696;SDS011;2362;50.780;0.292;2023-03-29T01:46:17;53.35;;;16.05;;
4696;SDS011;2362;50.780;0.292;2023-03-29T01:48:49;57.45;;;15.20;;
4696;SDS011;2362;50.780;0.292;2023-03-29T01:56:42;67.55;;;17.33;;
4696;SDS011;2362;50.780;0.292;2023-03-29T01:59:16;98.82;;;18.40;;
4696;SDS011;2362;50.780;0.292;2023-03-29T02:01:47;86.13;;;17.80;;
4696;SDS011;2362;50.780;0.292;2023-03-29T02:04:17;63.08;;;16.77;;
4696;SDS011;2362;50.780;0.292;2023-03-29T02:06:51;77.15;;;18.65;;
4696;SDS011;2362;50.780;0.292;2023-03-29T02:09:20;65.97;;;15.82;;
4696;SDS011;2362;50.780;0.292;2023-03-29T02:11:47;58.97;;;15.45;;
4696;SDS011;2362;50.780;0.292;2023-03-29T02:14:15;60.75;;;14.15;;
4696;SDS011;2362;50.780;0.292;2023-03-29T02:16:41;51.08;;;13.88;;
4696;SDS011;2362;50.780;0.292;2023-03-29T02:19:06;40.60;;;11.57;;
4696;SDS011;2362;50.780;0.292;2023-03-29T02:24:19;47.47;;;10.15;;
4696;SDS011;2362;50.780;0.292;2023-03-29T02:26:47;49.55;;;10.27;;
4696;SDS011;2362;50.780;0.292;2023-03-29T02:29:13;52.40;;;10.70;;
4696;SDS011;2362;50.780;0.292;2023-03-29T02:31:40;54.45;;;10.68;;
4696;SDS011;2362;50.780;0.292;2023-03-29T02:36:54;46.80;;;10.55;;
4696;SDS011;2362;50.780;0.292;2023-03-29T02:39:25;38.28;;;9.02;;
4696;SDS011;2362;50.780;0.292;2023-03-29T02:41:53;39.13;;;10.30;;
4696;SDS011;2362;50.780;0.292;2023-03-29T02:44:21;27.35;;;8.60;;
4696;SDS011;2362;50.780;0.292;2023-03-29T02:46:52;25.42;;;7.95;;
4696;SDS011;2362;50.780;0.292;2023-03-29T02:49:20;28.60;;;7.68;;
4696;SDS011;2362;50.780;0.292;2023-03-29T02:51:50;45.08;;;9.10;;
4696;SDS011;2362;50.780;0.292;2023-03-29T02:54:19;44.03;;;8.93;;
4696;SDS011;2362;50.780;0.292;2023-03-29T02:56:48;34.83;;;9.30;;
4696;SDS011;2362;50.780;0.292;2023-03-29T02:59:20;28.65;;;9.02;;
4696;SDS011;2362;50.780;0.292;2023-03-29T03:01:49;38.60;;;9.73;;
4696;SDS011;2362;50.780;0.292;2023-03-29T03:04:16;45.53;;;9.40;;
4696;SDS011;2362;50.780;0.292;2023-03-29T03:06:44;30.52;;;10.57;;
4696;SDS011;2362;50.780;0.292;2023-03-29T03:09:11;30.23;;;9.65;;
4696;SDS011;2362;50.780;0.292;2023-03-29T03:11:37;40.97;;;11.25;;
4696;SDS011;2362;50.780;0.292;2023-03-29T03:14:03;52.30;;;11.40;;
4696;SDS011;2362;50.780;0.292;2023-03-29T03:16:30;38.10;;;10.45;;
4696;SDS011;2362;50.780;0.292;2023-03-29T03:18:56;36.42;;;11.20;;
4696;SDS011;2362;50.780;0.292;2023-03-29T03:21:22;54.08;;;11.07;;
4696;SDS011;2362;50.780;0.292;2023-03-29T03:23:48;33.45;;;7.70;;
4696;SDS011;2362;50.780;0.292;2023-03-29T03:26:14;35.53;;;7.63;;
4696;SDS011;2362;50.780;0.292;2023-03-29T03:28:40;22.20;;;6.22;;
4696;SDS011;2362;50.780;0.292;2023-03-29T03:31:09;26.15;;;6.25;;
4696;SDS011;2362;50.780;0.292;2023-03-29T03:33:35;17.38;;;4.70;;
4696;SDS011;2362;50.780;0.292;2023-03-29T03:36:02;14.25;;;4.35;;
4696;SDS011;2362;50.780;0.292;2023-03-29T03:38:31;23.85;;;5.07;;
4696;SDS011;2362;50.780;0.292;2023-03-29T03:40:58;15.00;;;3.83;;
4696;SDS011;2362;50.780;0.292;2023-03-29T03:43:25;22.42;;;4.63;;
4696;SDS011;2362;50.780;0.292;2023-03-29T03:45:51;18.38;;;4.45;;
4696;SDS011;2362;50.780;0.292;2023-03-29T03:48:16;26.25;;;4.90;;
4696;SDS011;2362;50.780;0.292;2023-03-29T03:50:46;26.02;;;6.07;;
4696;SDS011;2362;50.780;0.292;2023-03-29T03:53:13;26.70;;;6.20;;
4696;SDS011;2362;50.780;0.292;2023-03-29T03:55:40;14.35;;;5.40;;
4696;SDS011;2362;50.780;0.292;2023-03-29T03:58:05;25.75;;;6.25;;
4696;SDS011;2362;50.780;0.292;2023-03-29T04:00:32;16.17;;;4.93;;
4696;SDS011;2362;50.780;0.292;2023-03-29T04:02:58;24.98;;;6.72;;
4696;SDS011;2362;50.780;0.292;2023-03-29T04:05:23;21.02;;;6.13;;
4696;SDS011;2362;50.780;0.292;2023-03-29T04:07:49;20.88;;;4.88;;
4696;SDS011;2362;50.780;0.292;2023-03-29T04:10:15;30.27;;;4.72;;
4696;SDS011;2362;50.780;0.292;2023-03-29T04:12:41;21.33;;;5.55;;
4696;SDS011;2362;50.780;0.292;2023-03-29T04:15:07;17.88;;;4.70;;
4696;SDS011;2362;50.780;0.292;2023-03-29T04:17:33;26.80;;;5.38;;
4696;SDS011;2362;50.780;0.292;2023-03-29T04:19:59;19.73;;;5.28;;
4696;SDS011;2362;50.780;0.292;2023-03-29T04:22:26;22.85;;;5.57;;
4696;SDS011;2362;50.780;0.292;2023-03-29T04:24:53;26.40;;;6.00;;
4696;SDS011;2362;50.780;0.292;2023-03-29T04:27:19;20.20;;;5.75;;
4696;SDS011;2362;50.780;0.292;2023-03-29T04:29:45;38.15;;;6.90;;
4696;SDS011;2362;50.780;0.292;2023-03-29T04:32:11;27.75;;;7.05;;
4696;SDS011;2362;50.780;0.292;2023-03-29T04:34:37;29.52;;;6.47;;
4696;SDS011;2362;50.780;0.292;2023-03-29T04:37:03;30.98;;;7.15;;
4696;SDS011;2362;50.780;0.292;2023-03-29T04:39:34;32.25;;;7.35;;
4696;SDS011;2362;50.780;0.292;2023-03-29T04:42:00;26.58;;;7.28;;
4696;SDS011;2362;50.780;0.292;2023-03-29T04:44:27;38.38;;;7.95;;
4696;SDS011;2362;50.780;0.292;2023-03-29T04:46:53;42.92;;;8.32;;
4696;SDS011;2362;50.780;0.292;2023-03-29T04:49:19;40.10;;;7.53;;
4696;SDS011;2362;50.780;0.292;2023-03-29T04:51:45;63.25;;;8.43;;
4696;SDS011;2362;50.780;0.292;2023-03-29T04:54:10;47.75;;;6.35;;
4696;SDS011;2362;50.780;0.292;2023-03-29T04:56:36;48.85;;;6.65;;
4696;SDS011;2362;50.780;0.292;2023-03-29T04:59:02;68.40;;;6.55;;
4696;SDS011;2362;50.780;0.292;2023-03-29T05:01:27;38.30;;;6.13;;
4696;SDS011;2362;50.780;0.292;2023-03-29T05:03:53;36.85;;;6.40;;
4696;SDS011;2362;50.780;0.292;2023-03-29T05:06:19;29.95;;;6.55;;
4696;SDS011;2362;50.780;0.292;2023-03-29T05:08:45;37.60;;;5.93;;
4696;SDS011;2362;50.780;0.292;2023-03-29T05:11:11;27.73;;;5.85;;
4696;SDS011;2362;50.780;0.292;2023-03-29T05:13:37;26.95;;;5.53;;
4696;SDS011;2362;50.780;0.292;2023-03-29T05:16:03;21.23;;;5.70;;
4696;SDS011;2362;50.780;0.292;2023-03-29T05:18:29;31.67;;;6.80;;
4696;SDS011;2362;50.780;0.292;2023-03-29T05:20:56;37.33;;;6.40;;
4696;SDS011;2362;50.780;0.292;2023-03-29T05:23:22;23.52;;;5.95;;
4696;SDS011;2362;50.780;0.292;2023-03-29T05:25:49;33.75;;;6.88;;
4696;SDS011;2362;50.780;0.292;2023-03-29T05:28:17;23.40;;;5.72;;
4696;SDS011;2362;50.780;0.292;2023-03-29T05:30:43;52.58;;;5.97;;
4696;SDS011;2362;50.780;0.292;2023-03-29T05:33:09;32.97;;;6.32;;
4696;SDS011;2362;50.780;0.292;2023-03-29T05:36:04;44.13;;;6.45;;
4696;SDS011;2362;50.780;0.292;2023-03-29T05:38:40;22.85;;;5.50;;
4696;SDS011;2362;50.780;0.292;2023-03-29T05:41:06;28.80;;;6.55;;
4696;SDS011;2362;50.780;0.292;2023-03-29T05:43:32;33.47;;;6.43;;
4696;SDS011;2362;50.780;0.292;2023-03-29T05:45:58;38.17;;;6.13;;
4696;SDS011;2362;50.780;0.292;2023-03-29T05:48:25;36.25;;;5.68;;
4696;SDS011;2362;50.780;0.292;2023-03-29T05:50:52;38.33;;;7.38;;
4696;SDS011;2362;50.780;0.292;2023-03-29T05:53:20;34.20;;;7.07;;
4696;SDS011;2362;50.780;0.292;2023-03-29T05:55:47;59.65;;;8.52;;
4696;SDS011;2362;50.780;0.292;2023-03-29T05:58:13;52.65;;;6.50;;
4696;SDS011;2362;50.780;0.292;2023-03-29T06:00:40;35.55;;;7.07;;
4696;SDS011;2362;50.780;0.292;2023-03-29T06:03:07;31.73;;;6.95;;
4696;SDS011;2362;50.780;0.292;2023-03-29T06:05:43;25.63;;;5.43;;
4696;SDS011;2362;50.780;0.292;2023-03-29T06:08:13;32.38;;;5.90;;
4696;SDS011;2362;50.780;0.292;2023-03-29T06:10:40;29.38;;;6.10;;
4696;SDS011;2362;50.780;0.292;2023-03-29T06:13:06;25.13;;;7.47;;
4696;SDS011;2362;50.780;0.292;2023-03-29T06:15:32;26.80;;;6.57;;
4696;SDS011;2362;50.780;0.292;2023-03-29T06:17:59;35.38;;;8.25;;
4696;SDS011;2362;50.780;0.292;2023-03-29T06:20:26;47.22;;;7.40;;
4696;SDS011;2362;50.780;0.292;2023-03-29T06:22:52;52.42;;;7.85;;
4696;SDS011;2362;50.780;0.292;2023-03-29T06:25:18;26.20;;;7.47;;
4696;SDS011;2362;50.780;0.292;2023-03-29T06:27:45;31.63;;;7.72;;
4696;SDS011;2362;50.780;0.292;2023-03-29T06:30:11;36.80;;;8.02;;
4696;SDS011;2362;50.780;0.292;2023-03-29T06:32:41;42.50;;;8.95;;
4696;SDS011;2362;50.780;0.292;2023-03-29T06:35:07;42.55;;;9.13;;
4696;SDS011;2362;50.780;0.292;2023-03-29T06:37:35;30.55;;;8.48;;
4696;SDS011;2362;50.780;0.292;2023-03-29T06:40:04;38.45;;;7.60;;
4696;SDS011;2362;50.780;0.292;2023-03-29T06:42:31;31.42;;;7.32;;
4696;SDS011;2362;50.780;0.292;2023-03-29T06:44:57;56.60;;;9.27;;
4696;SDS011;2362;50.780;0.292;2023-03-29T06:47:23;32.65;;;8.40;;
4696;SDS011;2362;50.780;0.292;2023-03-29T06:49:54;38.38;;;9.15;;
4696;SDS011;2362;50.780;0.292;2023-03-29T06:52:20;36.25;;;9.77;;
4696;SDS011;2362;50.780;0.292;2023-03-29T06:54:46;43.55;;;10.45;;
4696;SDS011;2362;50.780;0.292;2023-03-29T06:57:12;42.85;;;9.93;;
4696;SDS011;2362;50.780;0.292;2023-03-29T06:59:37;69.40;;;11.68;;
4696;SDS011;2362;50.780;0.292;2023-03-29T07:02:03;74.03;;;9.73;;
4696;SDS011;2362;50.780;0.292;2023-03-29T07:04:54;97.28;;;8.10;;
4696;SDS011;2362;50.780;0.292;2023-03-29T07:07:45;74.55;;;9.32;;
4696;SDS011;2362;50.780;0.292;2023-03-29T07:10:30;57.60;;;7.38;;
4696;SDS011;2362;50.780;0.292;2023-03-29T07:13:02;77.78;;;7.45;;
4696;SDS011;2362;50.780;0.292;2023-03-29T07:15:33;85.50;;;9.60;;
4696;SDS011;2362;50.780;0.292;2023-03-29T07:17:59;89.80;;;9.02;;
4696;SDS011;2362;50.780;0.292;2023-03-29T07:20:26;74.00;;;7.38;;
4696;SDS011;2362;50.780;0.292;2023-03-29T07:22:52;113.90;;;9.07;;
4696;SDS011;2362;50.780;0.292;2023-03-29T07:25:19;53.40;;;6.95;;
4696;SDS011;2362;50.780;0.292;2023-03-29T07:27:46;49.00;;;5.60;;
4696;SDS011;2362;50.780;0.292;2023-03-29T07:30:17;64.60;;;6.60;;
4696;SDS011;2362;50.780;0.292;2023-03-29T07:32:45;57.05;;;6.15;;
4696;SDS011;2362;50.780;0.292;2023-03-29T07:35:13;45.60;;;6.25;;
4696;SDS011;2362;50.780;0.292;2023-03-29T07:37:39;64.35;;;6.53;;
4696;SDS011;2362;50.780;0.292;2023-03-29T07:40:08;43.55;;;5.47;;
4696;SDS011;2362;50.780;0.292;2023-03-29T07:42:46;47.58;;;5.72;;
4696;SDS011;2362;50.780;0.292;2023-03-29T07:45:13;49.10;;;7.22;;
4696;SDS011;2362;50.780;0.292;2023-03-29T07:47:40;41.40;;;6.82;;
4696;SDS011;2362;50.780;0.292;2023-03-29T07:50:07;39.20;;;7.45;;
4696;SDS011;2362;50.780;0.292;2023-03-29T07:52:34;46.55;;;7.20;;
4696;SDS011;2362;50.780;0.292;2023-03-29T07:55:02;43.83;;;6.00;;
4696;SDS011;2362;50.780;0.292;2023-03-29T07:57:32;44.33;;;6.10;;
4696;SDS011;2362;50.780;0.292;2023-03-29T07:59:58;51.70;;;7.07;;
4696;SDS011;2362;50.780;0.292;2023-03-29T08:02:24;37.72;;;6.82;;
4696;SDS011;2362;50.780;0.292;2023-03-29T08:04:52;65.28;;;8.63;;
4696;SDS011;2362;50.780;0.292;2023-03-29T08:07:18;51.08;;;8.85;;
4696;SDS011;2362;50.780;0.292;2023-03-29T08:09:44;49.95;;;11.50;;
4696;SDS011;2362;50.780;0.292;2023-03-29T08:12:09;52.33;;;12.70;;
4696;SDS011;2362;50.780;0.292;2023-03-29T08:14:35;67.82;;;15.07;;
4696;SDS011;2362;50.780;0.292;2023-03-29T08:17:02;64.38;;;16.67;;
4696;SDS011;2362;50.780;0.292;2023-03-29T08:19:28;70.05;;;16.38;;
4696;SDS011;2362;50.780;0.292;2023-03-29T08:21:56;68.82;;;16.85;;
4696;SDS011;2362;50.780;0.292;2023-03-29T08:24:22;49.63;;;13.85;;
4696;SDS011;2362;50.780;0.292;2023-03-29T08:26:48;57.67;;;13.38;;
4696;SDS011;2362;50.780;0.292;2023-03-29T08:29:14;40.80;;;11.95;;
4696;SDS011;2362;50.780;0.292;2023-03-29T08:31:40;37.83;;;10.68;;
4696;SDS011;2362;50.780;0.292;2023-03-29T08:34:06;33.75;;;10.00;;
4696;SDS011;2362;50.780;0.292;2023-03-29T08:36:31;30.60;;;8.80;;
4696;SDS011;2362;50.780;0.292;2023-03-29T08:38:57;32.70;;;8.23;;
4696;SDS011;2362;50.780;0.292;2023-03-29T08:44:09;32.35;;;8.25;;
4696;SDS011;2362;50.780;0.292;2023-03-29T08:49:27;41.10;;;10.43;;
4696;SDS011;2362;50.780;0.292;2023-03-29T08:51:55;41.75;;;10.40;;
4696;SDS011;2362;50.780;0.292;2023-03-29T08:54:25;48.30;;;11.00;;
4696;SDS011;2362;50.780;0.292;2023-03-29T08:56:56;41.72;;;11.07;;
4696;SDS011;2362;50.780;0.292;2023-03-29T08:59:35;32.13;;;11.45;;
4696;SDS011;2362;50.780;0.292;2023-03-29T09:02:02;39.40;;;11.50;;
4696;SDS011;2362;50.780;0.292;2023-03-29T09:04:30;51.85;;;13.70;;
4696;SDS011;2362;50.780;0.292;2023-03-29T09:06:58;46.53;;;12.15;;
4696;SDS011;2362;50.780;0.292;2023-03-29T09:09:28;46.08;;;11.80;;
4696;SDS011;2362;50.780;0.292;2023-03-29T09:21:20;56.95;;;10.63;;
4696;SDS011;2362;50.780;0.292;2023-03-29T09:26:53;58.88;;;12.27;;
4696;SDS011;2362;50.780;0.292;2023-03-29T09:32:25;50.45;;;10.43;;
4696;SDS011;2362;50.780;0.292;2023-03-29T09:35:10;59.92;;;11.45;;
4696;SDS011;2362;50.780;0.292;2023-03-29T09:37:42;61.92;;;11.75;;
4696;SDS011;2362;50.780;0.292;2023-03-29T09:40:11;53.67;;;11.00;;
4696;SDS011;2362;50.780;0.292;2023-03-29T09:42:40;61.15;;;13.05;;
4696;SDS011;2362;50.780;0.292;2023-03-29T09:45:07;50.80;;;10.63;;
4696;SDS011;2362;50.780;0.292;2023-03-29T09:47:34;46.97;;;10.20;;
4696;SDS011;2362;50.780;0.292;2023-03-29T09:50:15;44.33;;;9.07;;
4696;SDS011;2362;50.780;0.292;2023-03-29T09:52:42;57.03;;;10.52;;
4696;SDS011;2362;50.780;0.292;2023-03-29T09:55:11;58.80;;;11.70;;
4696;SDS011;2362;50.780;0.292;2023-03-29T09:57:39;53.60;;;10.23;;
4696;SDS011;2362;50.780;0.292;2023-03-29T10:00:05;61.17;;;10.30;;
4696;SDS011;2362;50.780;0.292;2023-03-29T10:02:31;48.63;;;11.48;;
4696;SDS011;2362;50.780;0.292;2023-03-29T10:04:57;41.03;;;9.35;;
4696;SDS011;2362;50.780;0.292;2023-03-29T10:07:31;57.03;;;9.43;;
4696;SDS011;2362;50.780;0.292;2023-03-29T10:10:14;55.80;;;10.75;;
4696;SDS011;2362;50.780;0.292;2023-03-29T10:12:49;52.80;;;10.02;;
4696;SDS011;2362;50.780;0.292;2023-03-29T10:15:18;35.22;;;9.20;;
4696;SDS011;2362;50.780;0.292;2023-03-29T10:17:45;42.55;;;10.50;;
4696;SDS011;2362;50.780;0.292;2023-03-29T10:20:23;45.58;;;8.63;;
4696;SDS011;2362;50.780;0.292;2023-03-29T10:22:54;58.40;;;10.00;;
4696;SDS011;2362;50.780;0.292;2023-03-29T10:25:24;47.25;;;8.55;;
4696;SDS011;2362;50.780;0.292;2023-03-29T10:27:56;47.33;;;10.45;;
4696;SDS011;2362;50.780;0.292;2023-03-29T10:30:36;49.05;;;9.70;;
4696;SDS011;2362;50.780;0.292;2023-03-29T10:33:04;55.35;;;10.52;;
4696;SDS011;2362;50.780;0.292;2023-03-29T10:35:38;44.28;;;9.15;;
4696;SDS011;2362;50.780;0.292;2023-03-29T10:38:09;39.80;;;8.27;;
4696;SDS011;2362;50.780;0.292;2023-03-29T10:40:44;50.88;;;10.68;;
4696;SDS011;2362;50.780;0.292;2023-03-29T10:45:46;46.63;;;10.32;;
4696;SDS011;2362;50.780;0.292;2023-03-29T10:48:13;38.90;;;8.93;;
4696;SDS011;2362;50.780;0.292;2023-03-29T10:50:40;43.97;;;10.68;;
4696;SDS011;2362;50.780;0.292;2023-03-29T10:53:33;46.40;;;9.65;;
4696;SDS011;2362;50.780;0.292;2023-03-29T10:56:06;42.15;;;9.77;;
4696;SDS011;2362;50.780;0.292;2023-03-29T11:15:45;39.08;;;9.73;;
4696;SDS011;2362;50.780;0.292;2023-03-29T11:23:48;40.45;;;9.05;;
4696;SDS011;2362;50.780;0.292;2023-03-29T11:29:24;27.75;;;9.30;;
4696;SDS011;2362;50.780;0.292;2023-03-29T11:37:33;42.67;;;9.15;;
4696;SDS011;2362;50.780;0.292;2023-03-29T11:43:10;31.55;;;10.55;;
4696;SDS011;2362;50.780;0.292;2023-03-29T11:49:15;42.75;;;10.27;;
4696;SDS011;2362;50.780;0.292;2023-03-29T11:51:48;51.22;;;10.48;;
4696;SDS011;2362;50.780;0.292;2023-03-29T11:54:27;40.25;;;9.20;;
4696;SDS011;2362;50.780;0.292;2023-03-29T11:56:58;45.70;;;8.63;;
4696;SDS011;2362;50.780;0.292;2023-03-29T11:59:35;36.63;;;8.18;;
4696;SDS011;2362;50.780;0.292;2023-03-29T12:02:10;33.20;;;7.85;;
4696;SDS011;2362;50.780;0.292;2023-03-29T12:04:45;28.27;;;8.32;;
4696;SDS011;2362;50.780;0.292;2023-03-29T12:07:19;31.55;;;7.82;;
4696;SDS011;2362;50.780;0.292;2023-03-29T12:09:52;33.55;;;8.57;;
4696;SDS011;2362;50.780;0.292;2023-03-29T12:15:15;34.28;;;7.20;;
4696;SDS011;2362;50.780;0.292;2023-03-29T12:17:54;22.92;;;7.00;;
4696;SDS011;2362;50.780;0.292;2023-03-29T12:20:25;26.10;;;6.55;;
4696;SDS011;2362;50.780;0.292;2023-03-29T12:22:55;35.05;;;8.00;;
4696;SDS011;2362;50.780;0.292;2023-03-29T12:25:43;31.35;;;6.60;;
4696;SDS011;2362;50.780;0.292;2023-03-29T12:28:50;38.70;;;7.30;;
4696;SDS011;2362;50.780;0.292;2023-03-29T12:34:20;32.95;;;6.70;;
4696;SDS011;2362;50.780;0.292;2023-03-29T12:37:13;30.50;;;8.00;;
4696;SDS011;2362;50.780;0.292;2023-03-29T12:39:51;33.65;;;6.25;;
4696;SDS011;2362;50.780;0.292;2023-03-29T12:44:47;32.22;;;6.22;;
4696;SDS011;2362;50.780;0.292;2023-03-29T12:47:22;23.35;;;5.85;;
4696;SDS011;2362;50.780;0.292;2023-03-29T12:49:54;28.38;;;5.57;;
4696;SDS011;2362;50.780;0.292;2023-03-29T12:52:32;34.05;;;6.65;;
4696;SDS011;2362;50.780;0.292;2023-03-29T12:55:00;21.23;;;6.47;;
4696;SDS011;2362;50.780;0.292;2023-03-29T12:57:43;23.92;;;6.22;;
4696;SDS011;2362;50.780;0.292;2023-03-29T13:00:26;22.95;;;6.55;;
4696;SDS011;2362;50.780;0.292;2023-03-29T13:03:28;24.90;;;6.88;;
4696;SDS011;2362;50.780;0.292;2023-03-29T13:05:59;19.75;;;5.47;;
4696;SDS011;2362;50.780;0.292;2023-03-29T13:11:11;23.55;;;5.35;;
4696;SDS011;2362;50.780;0.292;2023-03-29T13:13:49;25.17;;;6.22;;
4696;SDS011;2362;50.780;0.292;2023-03-29T13:16:17;22.35;;;4.97;;
4696;SDS011;2362;50.780;0.292;2023-03-29T13:19:07;22.38;;;4.85;;
4696;SDS011;2362;50.780;0.292;2023-03-29T13:21:57;26.65;;;4.80;;
4696;SDS011;2362;50.780;0.292;2023-03-29T13:24:49;30.90;;;5.60;;
4696;SDS011;2362;50.780;0.292;2023-03-29T13:27:47;22.30;;;4.13;;
4696;SDS011;2362;50.780;0.292;2023-03-29T13:38:51;17.95;;;5.38;;
4696;SDS011;2362;50.780;0.292;2023-03-29T13:43:57;20.55;;;5.13;;
4696;SDS011;2362;50.780;0.292;2023-03-29T13:46:38;26.60;;;4.93;;
4696;SDS011;2362;50.780;0.292;2023-03-29T13:49:10;22.85;;;4.97;;
4696;SDS011;2362;50.780;0.292;2023-03-29T13:51:41;19.83;;;5.20;;
4696;SDS011;2362;50.780;0.292;2023-03-29T13:54:26;18.40;;;4.15;;
4696;SDS011;2362;50.780;0.292;2023-03-29T14:05:30;25.83;;;4.80;;
4696;SDS011;2362;50.780;0.292;2023-03-29T14:10:30;16.00;;;3.67;;
4696;SDS011;2362;50.780;0.292;2023-03-29T14:13:03;22.13;;;3.97;;
4696;SDS011;2362;50.780;0.292;2023-03-29T14:15:38;27.08;;;4.53;;
4696;SDS011;2362;50.780;0.292;2023-03-29T14:21:15;20.27;;;4.72;;
4696;SDS011;2362;50.780;0.292;2023-03-29T14:23:43;16.40;;;4.40;;
4696;SDS011;2362;50.780;0.292;2023-03-29T14:28:54;30.33;;;5.68;;
4696;SDS011;2362;50.780;0.292;2023-03-29T14:31:31;22.55;;;4.40;;
4696;SDS011;2362;50.780;0.292;2023-03-29T14:33:59;20.17;;;3.60;;
4696;SDS011;2362;50.780;0.292;2023-03-29T14:36:26;26.33;;;4.93;;
4696;SDS011;2362;50.780;0.292;2023-03-29T14:38:59;25.13;;;5.90;;
4696;SDS011;2362;50.780;0.292;2023-03-29T14:41:29;20.48;;;4.55;;
4696;SDS011;2362;50.780;0.292;2023-03-29T14:43:59;25.60;;;5.30;;
4696;SDS011;2362;50.780;0.292;2023-03-29T14:46:27;31.40;;;5.93;;
4696;SDS011;2362;50.780;0.292;2023-03-29T14:48:53;24.77;;;5.15;;
4696;SDS011;2362;50.780;0.292;2023-03-29T14:51:20;23.48;;;4.05;;
4696;SDS011;2362;50.780;0.292;2023-03-29T14:53:51;27.08;;;4.20;;
4696;SDS011;2362;50.780;0.292;2023-03-29T14:56:19;24.42;;;4.43;;
4696;SDS011;2362;50.780;0.292;2023-03-29T14:58:49;25.88;;;4.25;;
4696;SDS011;2362;50.780;0.292;2023-03-29T15:01:19;25.35;;;4.50;;
4696;SDS011;2362;50.780;0.292;2023-03-29T15:06:40;25.25;;;4.85;;
4696;SDS011;2362;50.780;0.292;2023-03-29T15:09:13;27.17;;;5.20;;
4696;SDS011;2362;50.780;0.292;2023-03-29T15:11:48;24.98;;;5.20;;
4696;SDS011;2362;50.780;0.292;2023-03-29T15:14:15;29.17;;;4.22;;
4696;SDS011;2362;50.780;0.292;2023-03-29T15:16:44;27.55;;;4.65;;
4696;SDS011;2362;50.780;0.292;2023-03-29T15:19:12;25.65;;;4.68;;
4696;SDS011;2362;50.780;0.292;2023-03-29T15:21:43;20.90;;;4.03;;
4696;SDS011;2362;50.780;0.292;2023-03-29T15:24:46;18.92;;;3.65;;
4696;SDS011;2362;50.780;0.292;2023-03-29T15:27:14;14.32;;;3.63;;
4696;SDS011;2362;50.780;0.292;2023-03-29T15:29:42;14.13;;;3.47;;
4696;SDS011;2362;50.780;0.292;2023-03-29T15:32:23;20.08;;;4.07;;
4696;SDS011;2362;50.780;0.292;2023-03-29T15:35:01;21.17;;;3.92;;
4696;SDS011;2362;50.780;0.292;2023-03-29T15:37:30;18.58;;;4.30;;
4696;SDS011;2362;50.780;0.292;2023-03-29T15:39:55;17.92;;;3.40;;
4696;SDS011;2362;50.780;0.292;2023-03-29T15:42:21;20.45;;;4.22;;
4696;SDS011;2362;50.780;0.292;2023-03-29T15:44:48;20.02;;;4.18;;
4696;SDS011;2362;50.780;0.292;2023-03-29T15:47:18;19.13;;;3.13;;
4696;SDS011;2362;50.780;0.292;2023-03-29T15:49:45;25.73;;;4.57;;
4696;SDS011;2362;50.780;0.292;2023-03-29T15:52:11;24.10;;;3.28;;
4696;SDS011;2362;50.780;0.292;2023-03-29T15:54:36;17.17;;;4.30;;
4696;SDS011;2362;50.780;0.292;2023-03-29T15:57:04;20.00;;;3.50;;
4696;SDS011;2362;50.780;0.292;2023-03-29T15:59:31;17.73;;;3.20;;
4696;SDS011;2362;50.780;0.292;2023-03-29T16:01:58;20.80;;;3.40;;
4696;SDS011;2362;50.780;0.292;2023-03-29T16:04:24;20.80;;;3.92;;
4696;SDS011;2362;50.780;0.292;2023-03-29T16:06:51;15.23;;;4.13;;
4696;SDS011;2362;50.780;0.292;2023-03-29T16:09:18;25.10;;;5.30;;
4696;SDS011;2362;50.780;0.292;2023-03-29T16:11:45;18.23;;;4.15;;
4696;SDS011;2362;50.780;0.292;2023-03-29T16:16:45;18.63;;;3.72;;
4696;SDS011;2362;50.780;0.292;2023-03-29T16:19:11;15.45;;;3.10;;
4696;SDS011;2362;50.780;0.292;2023-03-29T16:21:36;29.60;;;4.57;;
4696;SDS011;2362;50.780;0.292;2023-03-29T16:24:02;18.33;;;3.10;;
4696;SDS011;2362;50.780;0.292;2023-03-29T16:26:28;26.98;;;3.47;;
4696;SDS011;2362;50.780;0.292;2023-03-29T16:28:55;25.90;;;4.40;;
4696;SDS011;2362;50.780;0.292;2023-03-29T16:31:21;23.13;;;3.67;;
4696;SDS011;2362;50.780;0.292;2023-03-29T16:33:49;16.73;;;3.17;;
4696;SDS011;2362;50.780;0.292;2023-03-29T16:36:15;18.92;;;2.92;;
4696;SDS011;2362;50.780;0.292;2023-03-29T16:38:41;17.95;;;3.40;;
4696;SDS011;2362;50.780;0.292;2023-03-29T16:41:08;18.50;;;2.85;;
4696;SDS011;2362;50.780;0.292;2023-03-29T16:43:39;20.83;;;3.28;;
4696;SDS011;2362;50.780;0.292;2023-03-29T16:46:04;14.50;;;3.03;;
4696;SDS011;2362;50.780;0.292;2023-03-29T16:48:32;17.33;;;3.33;;
4696;SDS011;2362;50.780;0.292;2023-03-29T16:50:58;15.48;;;3.08;;
4696;SDS011;2362;50.780;0.292;2023-03-29T16:53:50;25.10;;;6.68;;
4696;SDS011;2362;50.780;0.292;2023-03-29T16:56:17;20.33;;;4.40;;
4696;SDS011;2362;50.780;0.292;2023-03-29T16:58:43;29.13;;;6.70;;
4696;SDS011;2362;50.780;0.292;2023-03-29T17:01:10;13.85;;;3.55;;
4696;SDS011;2362;50.780;0.292;2023-03-29T17:03:38;16.48;;;3.33;;
4696;SDS011;2362;50.780;0.292;2023-03-29T17:06:04;10.15;;;3.20;;
4696;SDS011;2362;50.780;0.292;2023-03-29T17:08:31;13.85;;;3.90;;
4696;SDS011;2362;50.780;0.292;2023-03-29T17:10:57;22.90;;;3.45;;
4696;SDS011;2362;50.780;0.292;2023-03-29T17:13:24;16.38;;;3.22;;
4696;SDS011;2362;50.780;0.292;2023-03-29T17:15:51;19.80;;;2.75;;
4696;SDS011;2362;50.780;0.292;2023-03-29T17:18:18;25.73;;;3.45;;
4696;SDS011;2362;50.780;0.292;2023-03-29T17:20:45;13.52;;;3.28;;